Terminal Aerodrome Forecast
Issued by NWS

Home | Current Version | Previous Version | Text Only | Print | Product List | Glossary On
Versions: 1 2 3 4 5 6 7 8 9 10 11 12
000
FTUS43 KSGF 082329
TAFJLN
TAF
KJLN 082329Z 0900/0924 22006KT P6SM BKN060
     FM090600 22006KT P6SM SCT250
     FM091200 28009KT P6SM SKC
     FM091400 31012G19KT P6SM FEW250=

USA.gov is the U.S. government's official web portal to all federal, state and local government web resources and services.